Time;durP1;ratioP1;P1;durP2;ratioP2;P2;SDS_P1;SDS_P2;PMS_P1;PMS_P2;Temp;Humidity;BMP_temperature;BMP_pressure;BME280_temperature;BME280_humidity;BME280_pressure;Samples;Min_cycle;Max_cycle;Signal;HPM_P1;HPM_P2
2023/08/29 00:01:56;;;;;;;44.87;42.60;;;;;;;11.92;100.00;101184.88;5051482;28;20534;-45
2023/08/29 00:04:24;;;;;;;44.80;43.00;;;;;;;11.88;100.00;101186.31;5050786;28;20439;-41
2023/08/29 00:06:51;;;;;;;46.13;44.10;;;;;;;11.87;100.00;101185.50;5051059;28;20514;-44
2023/08/29 00:09:19;;;;;;;46.80;44.90;;;;;;;11.85;100.00;101179.53;5050484;28;20474;-44
2023/08/29 00:11:46;;;;;;;45.40;43.60;;;;;;;11.86;100.00;101183.81;5044602;28;20516;-45
2023/08/29 00:14:16;;;;;;;46.13;44.23;;;;;;;11.82;100.00;101174.56;5040432;28;20492;-42
2023/08/29 00:16:43;;;;;;;44.57;42.87;;;;;;;11.79;100.00;101169.59;5045977;28;20493;-43
2023/08/29 00:19:11;;;;;;;46.70;44.80;;;;;;;11.77;100.00;101165.47;5047355;28;20431;-41
2023/08/29 00:21:39;;;;;;;47.60;45.70;;;;;;;11.75;100.00;101178.19;5043855;28;20432;-41
2023/08/29 00:24:07;;;;;;;45.80;43.60;;;;;;;11.73;100.00;101173.06;5041740;28;20484;-42
2023/08/29 00:26:35;;;;;;;42.80;41.10;;;;;;;11.68;100.00;101178.94;5050782;28;20431;-41
2023/08/29 00:29:02;;;;;;;43.27;41.30;;;;;;;11.65;100.00;101181.16;5050552;28;20467;-48
2023/08/29 00:31:31;;;;;;;44.87;43.07;;;;;;;11.60;100.00;101175.56;5050935;28;20435;-41
2023/08/29 00:33:59;;;;;;;45.00;43.10;;;;;;;11.55;100.00;101176.16;5049751;28;20470;-43
2023/08/29 00:36:26;;;;;;;43.60;41.90;;;;;;;11.54;100.00;101185.19;5050296;28;20433;-43
2023/08/29 00:38:54;;;;;;;47.50;45.60;;;;;;;11.51;100.00;101182.06;5050062;28;20485;-42
2023/08/29 00:41:22;;;;;;;47.70;45.60;;;;;;;11.46;100.00;101171.97;5050428;28;20438;-42
2023/08/29 00:43:49;;;;;;;48.20;46.20;;;;;;;11.46;100.00;101179.16;5049285;28;20459;-45
2023/08/29 00:46:17;;;;;;;48.47;46.20;;;;;;;11.43;100.00;101187.53;5050832;28;20528;-41
2023/08/29 00:48:47;;;;;;;46.30;44.40;;;;;;;11.43;100.00;101180.38;5049793;28;20475;-44
2023/08/29 00:51:15;;;;;;;46.13;43.87;;;;;;;11.41;100.00;101181.56;5041929;28;20819;-46
2023/08/29 00:53:43;;;;;;;47.30;45.20;;;;;;;11.38;100.00;101176.63;5049418;28;20561;-41
2023/08/29 00:56:12;;;;;;;45.93;44.07;;;;;;;11.38;100.00;101181.97;5049983;28;20431;-44
2023/08/29 00:58:40;;;;;;;46.20;44.43;;;;;;;11.35;100.00;101180.47;5050220;28;20514;-41
2023/08/29 01:01:08;;;;;;;47.27;45.47;;;;;;;11.33;100.00;101174.50;5041967;28;20467;-48
2023/08/29 01:03:38;;;;;;;45.33;43.50;;;;;;;11.31;100.00;101165.03;5049505;28;20463;-43
2023/08/29 01:06:07;;;;;;;48.67;46.77;;;;;;;11.26;100.00;101165.59;5041498;28;20461;-45
2023/08/29 01:08:35;;;;;;;49.77;47.57;;;;;;;11.23;100.00;101160.63;5049670;28;20945;-41
2023/08/29 01:11:12;;;;;;;44.73;42.97;;;;;;;11.22;100.00;101156.34;5041614;28;21029;-41
2023/08/29 01:13:45;;;;;;;50.23;48.27;;;;;;;11.19;100.00;101153.22;5042336;28;20524;-43
2023/08/29 01:16:16;;;;;;;46.60;44.47;;;;;;;11.18;100.00;101151.56;5050386;28;20438;-44
2023/08/29 01:18:45;;;;;;;44.40;42.60;;;;;;;11.16;100.00;101154.44;5049743;28;20438;-42
2023/08/29 01:21:26;;;;;;;47.37;45.47;;;;;;;11.13;100.00;101141.47;5049745;28;20547;-43
2023/08/29 01:24:00;;;;;;;49.50;47.40;;;;;;;11.10;100.00;101136.50;5049049;28;20542;-45
2023/08/29 01:26:30;;;;;;;47.90;46.00;;;;;;;11.09;100.00;101137.50;5049541;28;20433;-42
2023/08/29 01:29:00;;;;;;;47.37;45.40;;;;;;;11.08;100.00;101135.84;5049350;28;20522;-45
2023/08/29 01:31:29;;;;;;;52.33;50.33;;;;;;;11.06;100.00;101137.88;5047135;28;20438;-41
2023/08/29 01:33:58;;;;;;;50.30;48.40;;;;;;;11.04;100.00;101134.59;5036287;28;20459;-41
2023/08/29 01:36:27;;;;;;;51.60;49.40;;;;;;;11.06;100.00;101135.22;5046643;28;20485;-43
2023/08/29 01:38:55;;;;;;;49.83;47.77;;;;;;;11.06;100.00;101137.88;5044854;28;20510;-42
2023/08/29 01:41:23;;;;;;;52.33;50.23;;;;;;;11.05;100.00;101136.25;5040999;28;20464;-41
2023/08/29 01:43:52;;;;;;;50.77;48.77;;;;;;;11.03;100.00;101138.25;5048799;28;20886;-41
2023/08/29 01:46:19;;;;;;;50.13;48.07;;;;;;;11.00;100.00;101130.63;5041613;28;20432;-43
2023/08/29 01:48:48;;;;;;;54.43;52.17;;;;;;;10.98;100.00;101135.34;5049693;28;20437;-43
2023/08/29 01:51:16;;;;;;;53.70;51.50;;;;;;;10.95;100.00;101125.88;5047724;28;20471;-44
2023/08/29 01:53:44;;;;;;;52.73;50.30;;;;;;;10.92;100.00;101134.28;5042007;28;20546;-42
2023/08/29 01:56:13;;;;;;;52.73;50.53;;;;;;;10.93;100.00;101135.09;5049866;28;20431;-42
2023/08/29 01:58:41;;;;;;;53.53;51.43;;;;;;;10.93;100.00;101135.09;5056388;28;20799;-41
2023/08/29 02:01:11;;;;;;;56.37;53.93;;;;;;;10.96;100.00;101143.53;5052141;28;20432;-43
2023/08/29 02:03:50;;;;;;;56.83;54.63;;;;;;;10.96;100.00;101151.53;5045460;28;20471;-43
2023/08/29 02:06:18;;;;;;;58.17;55.87;;;;;;;10.96;100.00;101156.06;5049905;28;20432;-43
2023/08/29 02:08:46;;;;;;;51.97;49.87;;;;;;;10.99;100.00;101166.38;5051933;28;20434;-42
2023/08/29 02:11:14;;;;;;;53.03;50.93;;;;;;;10.96;100.00;101170.22;5051525;28;21001;-41
2023/08/29 02:13:41;;;;;;;55.33;53.00;;;;;;;10.97;100.00;101179.06;5042761;28;21102;-42
2023/08/29 02:16:10;;;;;;;54.57;52.47;;;;;;;10.96;100.00;101177.41;5052459;28;20436;-47
2023/08/29 02:18:39;;;;;;;53.93;51.73;;;;;;;10.98;100.00;101196.72;5055271;28;20523;-43
2023/08/29 02:21:06;;;;;;;53.37;51.17;;;;;;;10.96;100.00;101209.44;5047800;28;20455;-41
2023/08/29 02:23:34;;;;;;;54.57;52.37;;;;;;;10.93;100.00;101205.28;5042626;28;20873;-44
2023/08/29 02:26:03;;;;;;;53.90;51.70;;;;;;;10.95;100.00;101202.44;5044292;28;20459;-43
2023/08/29 02:28:35;;;;;;;54.90;52.70;;;;;;;10.93;100.00;101191.13;5043050;28;20447;-43
2023/08/29 02:31:04;;;;;;;56.63;54.33;;;;;;;10.94;100.00;101192.78;5051682;28;20508;-41
2023/08/29 02:33:35;;;;;;;54.40;52.20;;;;;;;10.96;100.00;101190.75;5042832;28;20495;-44
2023/08/29 02:36:04;;;;;;;59.10;56.70;;;;;;;10.94;100.00;101187.44;5044246;28;20535;-41
2023/08/29 02:38:32;;;;;;;62.40;59.80;;;;;;;10.93;100.00;101185.78;5050932;28;20514;-41
2023/08/29 02:41:00;;;;;;;63.03;60.43;;;;;;;10.95;100.00;101192.59;5051423;28;20518;-44
2023/08/29 02:43:28;;;;;;;61.60;59.00;;;;;;;10.96;100.00;101190.75;5047470;28;20471;-41
2023/08/29 02:45:56;;;;;;;59.50;57.07;;;;;;;10.97;100.00;101187.06;5046276;28;20419;-41
2023/08/29 02:48:24;;;;;;;59.17;56.67;;;;;;;10.97;100.00;101190.56;5051395;28;20450;-45
2023/08/29 02:50:53;;;;;;;60.63;58.20;;;;;;;10.97;100.00;101193.22;5051168;28;20506;-43
2023/08/29 02:53:21;;;;;;;59.73;57.27;;;;;;;10.95;100.00;101189.94;5050226;28;20541;-43
2023/08/29 02:55:51;;;;;;;60.17;57.40;;;;;;;10.92;100.00;101192.13;5042680;28;20542;-43
2023/08/29 02:58:19;;;;;;;61.73;59.03;;;;;;;10.91;100.00;101191.31;5050979;28;20427;-43
2023/08/29 03:00:47;;;;;;;59.27;56.60;;;;;;;10.90;100.00;101200.31;5051106;28;20473;-41
2023/08/29 03:03:17;;;;;;;61.03;58.50;;;;;;;10.90;100.00;101196.84;5014138;28;1069535;-41
2023/08/29 03:05:55;;;;;;;61.70;59.20;;;;;;;10.88;100.00;101201.53;5043965;28;20616;-41
2023/08/29 03:08:23;;;;;;;61.27;58.53;;;;;;;10.88;100.00;101196.19;5052280;28;20431;-42
2023/08/29 03:10:51;;;;;;;60.83;58.13;;;;;;;10.88;100.00;101198.84;5052254;28;20463;-41
2023/08/29 03:13:19;;;;;;;63.27;60.00;;;;;;;10.86;100.00;101195.56;5051612;28;20459;-41
2023/08/29 03:15:46;;;;;;;62.30;59.40;;;;;;;10.81;100.00;101196.09;5053192;28;20431;-45
2023/08/29 03:18:14;;;;;;;61.50;58.70;;;;;;;10.76;100.00;101198.50;5053005;28;20522;-43
2023/08/29 03:20:42;;;;;;;57.60;55.20;;;;;;;10.72;100.00;101194.56;5052444;28;20941;-43
2023/08/29 03:23:12;;;;;;;62.70;59.90;;;;;;;10.68;100.00;101195.97;5052033;28;20550;-44
2023/08/29 03:25:40;;;;;;;58.53;56.03;;;;;;;10.67;100.00;101196.97;5044746;28;20855;-41
2023/08/29 03:28:07;;;;;;;59.30;56.80;;;;;;;10.66;100.00;101197.16;5052733;28;20466;-44
2023/08/29 03:30:35;;;;;;;62.53;59.83;;;;;;;10.64;100.00;101193.81;5052360;28;20478;-44
2023/08/29 03:33:03;;;;;;;60.33;57.63;;;;;;;10.62;100.00;101193.19;5052296;28;20467;-44
2023/08/29 03:35:31;;;;;;;63.87;61.17;;;;;;;10.62;100.00;101195.88;5052533;28;20432;-43
2023/08/29 03:37:59;;;;;;;60.70;58.00;;;;;;;10.63;100.00;101197.53;5044621;28;20501;-43
2023/08/29 03:40:28;;;;;;;62.80;59.90;;;;;;;10.63;100.00;101202.88;5050374;28;20489;-41
2023/08/29 03:42:56;;;;;;;64.90;62.00;;;;;;;10.61;100.00;101197.69;5046430;28;20816;-47
2023/08/29 03:45:23;;;;;;;62.40;59.70;;;;;;;10.62;100.00;101191.38;5052691;28;20435;-44
2023/08/29 03:47:51;;;;;;;65.70;62.50;;;;;;;10.63;100.00;101192.19;5052992;28;20438;-41
2023/08/29 03:50:21;;;;;;;63.33;60.77;;;;;;;10.62;100.00;101191.38;5044180;28;20436;-44
2023/08/29 03:52:49;;;;;;;61.20;58.50;;;;;;;10.60;100.00;101180.06;5052059;28;20458;-43
2023/08/29 03:55:16;;;;;;;64.17;61.17;;;;;;;10.59;100.00;101193.56;5052352;28;20555;-41
2023/08/29 03:57:45;;;;;;;63.30;60.47;;;;;;;10.57;100.00;101185.78;5045702;28;20428;-43
2023/08/29 04:00:14;;;;;;;62.87;60.17;;;;;;;10.54;100.00;101183.47;5053112;28;20427;-46
2023/08/29 04:02:42;;;;;;;64.03;61.07;;;;;;;10.52;100.00;101178.31;5052691;28;20463;-44
2023/08/29 04:05:15;;;;;;;68.93;65.57;;;;;;;10.51;100.00;101181.97;5053347;28;20458;-41
2023/08/29 04:07:44;;;;;;;61.90;59.03;;;;;;;10.51;100.00;101175.84;5049204;28;20445;-42
2023/08/29 04:10:13;;;;;;;63.97;61.07;;;;;;;10.52;100.00;101180.97;5050228;28;20442;-42
2023/08/29 04:12:40;;;;;;;63.50;60.70;;;;;;;10.53;100.00;101176.47;5044192;28;20521;-43
2023/08/29 04:15:12;;;;;;;68.37;65.17;;;;;;;10.53;100.00;101181.81;5044834;28;20441;-41
2023/08/29 04:17:40;;;;;;;64.10;61.30;;;;;;;10.54;100.00;101172.81;5037566;28;20436;-41
2023/08/29 04:20:09;;;;;;;68.50;65.60;;;;;;;10.55;100.00;101174.44;5053384;28;20530;-42
2023/08/29 04:22:38;;;;;;;66.27;63.23;;;;;;;10.56;100.00;101160.09;5051884;28;20881;-44
2023/08/29 04:25:07;;;;;;;62.87;60.00;;;;;;;10.56;100.00;101152.09;5053060;28;20465;-42
2023/08/29 04:27:35;;;;;;;61.83;59.07;;;;;;;10.53;100.00;101149.81;5053452;28;20922;-42
2023/08/29 04:30:04;;;;;;;63.90;61.10;;;;;;;10.53;100.00;101139.97;5053581;28;20463;-44
2023/08/29 04:32:34;;;;;;;66.03;62.97;;;;;;;10.57;100.00;101143.91;5051145;28;20467;-42
2023/08/29 04:35:02;;;;;;;63.50;60.73;;;;;;;10.61;100.00;101144.38;5040513;28;20435;-44
2023/08/29 04:37:30;;;;;;;71.63;68.23;;;;;;;10.66;100.00;101149.16;5045263;28;20465;-46
2023/08/29 04:39:58;;;;;;;63.77;60.90;;;;;;;10.71;100.00;101144.91;5045623;28;20459;-41
2023/08/29 04:42:26;;;;;;;67.70;64.40;;;;;;;10.78;100.00;101137.78;5052652;28;20459;-41
2023/08/29 04:44:54;;;;;;;65.10;61.93;;;;;;;10.87;100.00;101138.53;5053553;28;20427;-43
2023/08/29 04:47:22;;;;;;;67.20;63.70;;;;;;;10.95;100.00;101141.06;5053015;28;20523;-41
2023/08/29 04:49:51;;;;;;;68.50;65.10;;;;;;;11.03;100.00;101130.25;5050144;28;20511;-44
2023/08/29 04:52:18;;;;;;;69.17;63.77;;;;;;;11.10;100.00;101126.66;5049073;28;20477;-41
2023/08/29 04:54:46;;;;;;;67.83;63.90;;;;;;;11.21;100.00;101119.97;5050064;28;20467;-41
2023/08/29 04:57:14;;;;;;;69.63;65.70;;;;;;;11.31;100.00;101128.50;5041505;28;20463;-41
2023/08/29 04:59:41;;;;;;;63.07;59.97;;;;;;;11.44;100.00;101125.13;5033677;28;20462;-41
2023/08/29 05:02:09;;;;;;;63.07;59.97;;;;;;;11.56;100.00;101121.69;5041761;28;20435;-42
2023/08/29 05:04:37;;;;;;;60.97;57.77;;;;;;;11.68;100.00;101115.84;5049932;28;20455;-41
2023/08/29 05:07:06;;;;;;;61.40;58.00;;;;;;;11.81;100.00;101119.47;5043120;28;20523;-43
2023/08/29 05:09:34;;;;;;;55.63;52.93;;;;;;;12.06;100.00;101111.81;5048288;28;20489;-41
2023/08/29 05:12:02;;;;;;;59.10;56.10;;;;;;;12.23;100.00;101113.13;5043888;28;20567;-48
2023/08/29 05:15:11;;;;;;;59.53;56.13;;;;;;;;;;5036828;27;21150;-41
2023/08/29 05:17:39;;;;;;;59.07;55.97;;;;;;;;;;5064591;28;20431;-41
2023/08/29 05:20:09;;;;;;;56.13;53.33;;;;;;;;;;5064811;28;20450;-41
2023/08/29 05:22:37;;;;;;;56.23;53.53;;;;;;;;;;5067732;28;20508;-41
2023/08/29 05:25:06;;;;;;;58.27;55.50;;;;;;;;;;5063793;28;21084;-41
2023/08/29 05:27:34;;;;;;;61.17;57.97;;;;;;;;;;5046549;28;20439;-41
2023/08/29 05:30:02;;;;;;;55.80;53.30;;;;;;;;;;5045748;28;20442;-41
2023/08/29 05:32:31;;;;;;;51.43;48.83;;;;;;;;;;5034566;28;20502;-41
2023/08/29 05:34:59;;;;;;;44.77;42.37;;;;;;;;;;5029649;28;20502;-41
2023/08/29 05:37:26;;;;;;;42.30;40.07;;;;;;;;;;5044722;28;20534;-41
2023/08/29 05:39:53;;;;;;;44.07;41.87;;;;;;;;;;5044826;28;20443;-42
2023/08/29 05:42:21;;;;;;;39.40;37.40;;;;;;;;;;5037416;28;20440;-41
2023/08/29 05:44:48;;;;;;;44.27;42.10;;;;;;;;;;5046661;28;20491;-41
2023/08/29 05:47:16;;;;;;;48.50;46.30;;;;;;;;;;5046829;28;20435;-42
2023/08/29 05:49:45;;;;;;;45.77;43.63;;;;;;;;;;5049820;28;20786;-43
2023/08/29 05:52:12;;;;;;;46.07;43.87;;;;;;;;;;5050369;28;20445;-41
2023/08/29 05:54:41;;;;;;;42.40;40.50;;;;;;;;;;5054750;28;20510;-41
2023/08/29 05:57:08;;;;;;;48.80;46.60;;;;;;;;;;5046438;28;20442;-42
2023/08/29 05:59:36;;;;;;;43.23;41.23;;;;;;;;;;5049104;28;20439;-42
2023/08/29 06:02:05;;;;;;;46.23;44.17;;;;;;;;;;5050902;28;20522;-45
2023/08/29 06:04:33;;;;;;;43.60;41.60;;;;;;;;;;5056507;28;20455;-44
2023/08/29 06:07:02;;;;;;;48.67;46.27;;;;;;;;;;5052039;28;20501;-43
2023/08/29 06:09:29;;;;;;;41.97;39.80;;;;;;;;;;5047399;28;20439;-42
2023/08/29 06:11:57;;;;;;;42.07;40.07;;;;;;;;;;5046743;28;20534;-42
2023/08/29 06:14:24;;;;;;;42.07;40.07;;;;;;;;;;5054905;28;20986;-42
2023/08/29 06:16:52;;;;;;;42.40;40.40;;;;;;;;;;5054981;28;20449;-44
2023/08/29 06:19:19;;;;;;;39.70;37.97;;;;;;;;;;5046857;28;20447;-46
2023/08/29 06:21:47;;;;;;;36.37;34.83;;;;;;;;;;5045791;28;20530;-42
2023/08/29 06:24:15;;;;;;;40.10;38.40;;;;;;;;;;5053415;28;20549;-43
2023/08/29 06:26:43;;;;;;;39.70;37.90;;;;;;;;;;5040188;28;20465;-42
2023/08/29 06:29:10;;;;;;;36.00;34.30;;;;;;;;;;5032148;28;20538;-41
2023/08/29 06:31:38;;;;;;;37.87;35.97;;;;;;;;;;5041598;28;20802;-40
2023/08/29 06:34:06;;;;;;;38.23;36.33;;;;;;;;;;5033616;28;20558;-43
2023/08/29 06:36:33;;;;;;;40.60;38.40;;;;;;;;;;5033012;28;20471;-41
2023/08/29 06:39:01;;;;;;;34.60;32.90;;;;;;;;;;5033611;28;20455;-46
2023/08/29 06:41:30;;;;;;;36.77;34.53;;;;;;;;;;5032202;28;20446;-41
2023/08/29 06:43:57;;;;;;;33.57;31.93;;;;;;;;;;5026304;28;20466;-41
2023/08/29 06:46:24;;;;;;;30.90;29.33;;;;;;;;;;5049211;28;20489;-41
2023/08/29 06:48:52;;;;;;;29.90;28.67;;;;;;;;;;5053298;28;20449;-42
2023/08/29 06:51:19;;;;;;;31.00;29.50;;;;;;;;;;5061298;28;20461;-44
2023/08/29 06:53:47;;;;;;;29.37;27.87;;;;;;;;;;5052358;28;20485;-43
2023/08/29 06:56:14;;;;;;;27.97;26.80;;;;;;;;;;5052822;28;20475;-42
2023/08/29 06:58:43;;;;;;;29.90;28.30;;;;;;;;;;5052745;28;20860;-44
2023/08/29 07:01:10;;;;;;;30.47;29.07;;;;;;;;;;5061292;28;20439;-41
2023/08/29 07:03:38;;;;;;;31.20;29.67;;;;;;;;;;5052672;28;20545;-44
2023/08/29 07:06:06;;;;;;;32.03;30.73;;;;;;;;;;5052691;28;20826;-42
2023/08/29 07:08:34;;;;;;;28.93;27.63;;;;;;;;;;5052499;28;20488;-42
2023/08/29 07:11:01;;;;;;;29.50;28.10;;;;;;;;;;5052920;28;20982;-42
2023/08/29 07:13:29;;;;;;;29.13;27.73;;;;;;;;;;5052508;28;20458;-44
2023/08/29 07:15:58;;;;;;;29.93;28.53;;;;;;;;;;5052331;28;20554;-41
2023/08/29 07:18:25;;;;;;;28.33;27.03;;;;;;;;;;5052953;28;20473;-42
2023/08/29 07:20:53;;;;;;;28.87;27.20;;;;;;;;;;5060405;28;20445;-43
2023/08/29 07:23:20;;;;;;;24.47;23.40;;;;;;;;;;5052221;28;20485;-43
2023/08/29 07:25:47;;;;;;;22.70;21.60;;;;;;;;;;5052070;28;20463;-44
2023/08/29 07:28:15;;;;;;;25.33;24.03;;;;;;;;;;5052853;28;20492;-42
2023/08/29 07:30:43;;;;;;;25.77;24.10;;;;;;;;;;5063263;28;20489;-44
2023/08/29 07:33:12;;;;;;;21.00;19.80;;;;;;;;;;5057688;28;20465;-41
2023/08/29 07:35:39;;;;;;;18.50;17.60;;;;;;;;;;5051704;28;21006;-45
2023/08/29 07:38:07;;;;;;;23.17;21.43;;;;;;;;;;5057456;28;20434;-44
2023/08/29 07:40:35;;;;;;;19.37;18.27;;;;;;;;;;5054379;28;20442;-44
2023/08/29 07:43:03;;;;;;;18.80;17.70;;;;;;;;;;5052339;28;20454;-42
2023/08/29 07:45:30;;;;;;;19.97;18.67;;;;;;;;;;5051842;28;20521;-41
2023/08/29 07:47:58;;;;;;;18.23;17.23;;;;;;;;;;5060919;28;20438;-41
2023/08/29 07:50:27;;;;;;;17.73;16.63;;;;;;;;;;5052092;28;20443;-43
2023/08/29 07:52:55;;;;;;;17.47;16.47;;;;;;;;;;5055927;28;21030;-44
2023/08/29 07:55:22;;;;;;;16.87;15.70;;;;;;;;;;5063509;28;20489;-41
2023/08/29 07:57:50;;;;;;;18.77;17.50;;;;;;;;;;5052181;28;20435;-44
2023/08/29 08:00:18;;;;;;;15.50;14.67;;;;;;;;;;5052142;28;20443;-41
2023/08/29 08:02:46;;;;;;;16.37;15.37;;;;;;;;;;5054090;28;20896;-43
2023/08/29 08:05:14;;;;;;;13.80;13.10;;;;;;;;;;5056858;28;20459;-46
2023/08/29 08:07:44;;;;;;;14.23;13.43;;;;;;;;;;5052011;28;20878;-42
2023/08/29 08:10:13;;;;;;;12.33;11.63;;;;;;;;;;5058487;28;20852;-41
2023/08/29 08:12:40;;;;;;;11.43;10.67;;;;;;;;;;5052980;28;20486;-46
2023/08/29 08:15:09;;;;;;;11.00;10.50;;;;;;;;;;5053582;28;20646;-43
2023/08/29 08:17:36;;;;;;;9.67;9.07;;;;;;;;;;5031884;28;20446;-41
2023/08/29 08:20:07;;;;;;;8.73;8.23;;;;;;;;;;5026581;28;20998;-43
2023/08/29 08:22:34;;;;;;;10.33;9.83;;;;;;;;;;5037048;28;20491;-44
2023/08/29 08:25:04;;;;;;;9.10;8.70;;;;;;;;;;5031153;28;20943;-41
2023/08/29 08:27:31;;;;;;;8.87;8.40;;;;;;;;;;5047820;28;20434;-43
2023/08/29 08:29:59;;;;;;;6.43;6.23;;;;;;;;;;5039955;28;20439;-43
2023/08/29 08:32:27;;;;;;;7.73;7.33;;;;;;;;;;5031399;28;20531;-44
2023/08/29 08:34:54;;;;;;;7.33;7.10;;;;;;;;;;5023244;28;20887;-41
2023/08/29 08:37:22;;;;;;;6.97;6.67;;;;;;;;;;5031642;28;20455;-42
2023/08/29 08:39:49;;;;;;;8.17;7.67;;;;;;;;;;5031388;28;20436;-40
2023/08/29 08:42:19;;;;;;;6.30;5.90;;;;;;;;;;5031164;28;20445;-42
2023/08/29 08:44:46;;;;;;;5.73;5.53;;;;;;;;;;5022769;28;20526;-45
2023/08/29 08:47:14;;;;;;;5.00;4.80;;;;;;;;;;5031562;28;20440;-47
2023/08/29 08:49:42;;;;;;;5.07;4.87;;;;;;;;;;5030959;28;20482;-41
2023/08/29 08:52:11;;;;;;;4.70;4.30;;;;;;;;;;5031194;28;20535;-44
2023/08/29 08:54:39;;;;;;;4.70;4.60;;;;;;;;;;5030645;28;20439;-42
2023/08/29 08:57:06;;;;;;;5.27;5.07;;;;;;;;;;5031280;28;20443;-43
2023/08/29 08:59:35;;;;;;;5.47;5.27;;;;;;;;;;5031239;28;20572;-41
2023/08/29 09:02:02;;;;;;;7.33;7.03;;;;;;;;;;5030920;28;20471;-41
2023/08/29 09:04:30;;;;;;;6.40;6.20;;;;;;;;;;5022477;28;20488;-41
2023/08/29 09:06:57;;;;;;;7.10;6.70;;;;;;;;;;5031152;28;20444;-43
2023/08/29 09:09:25;;;;;;;6.30;6.10;;;;;;;;;;5031025;28;20444;-42
2023/08/29 09:11:53;;;;;;;6.40;6.10;;;;;;;;;;5030680;28;20526;-40
2023/08/29 09:14:21;;;;;;;5.73;5.43;;;;;;;;;;5030998;28;20533;-44
2023/08/29 09:16:53;;;;;;;6.00;5.60;;;;;;;;;;5027735;28;21057;-45
2023/08/29 09:19:22;;;;;;;6.67;6.37;;;;;;;;;;5026444;28;20531;-40
2023/08/29 09:21:49;;;;;;;6.10;5.80;;;;;;;;;;5030351;28;20447;-40
2023/08/29 09:24:22;;;;;;;6.07;5.67;;;;;;;;;;5030941;28;20896;-44
2023/08/29 09:26:49;;;;;;;5.93;5.63;;;;;;;;;;5022251;28;20463;-41
2023/08/29 09:29:18;;;;;;;5.73;5.53;;;;;;;;;;5031167;28;20875;-42
2023/08/29 09:31:46;;;;;;;7.17;6.33;;;;;;;;;;5030691;28;20478;-42
2023/08/29 09:34:28;;;;;;;5.60;5.40;;;;;;;;;;5030798;28;20870;-40
2023/08/29 09:36:58;;;;;;;4.80;4.60;;;;;;;;;;5030812;28;20471;-40
2023/08/29 09:39:26;;;;;;;4.77;4.47;;;;;;;;;;5038433;28;20438;-43
2023/08/29 09:42:01;;;;;;;5.40;4.93;;;;;;;;;;5039003;28;20458;-41
2023/08/29 09:44:29;;;;;;;5.33;5.13;;;;;;;;;;5030336;28;20486;-41
2023/08/29 09:46:56;;;;;;;4.10;3.90;;;;;;;;;;5033851;28;20510;-41
2023/08/29 09:49:30;;;;;;;5.27;4.87;;;;;;;;;;5035429;28;20442;-44
2023/08/29 09:52:01;;;;;;;4.17;3.83;;;;;;;;;;5022534;28;20444;-46
2023/08/29 09:54:29;;;;;;;4.80;4.50;;;;;;;;;;5030501;28;20525;-42
2023/08/29 09:56:57;;;;;;;5.13;4.83;;;;;;;;;;5042136;28;20506;-41
2023/08/29 09:59:25;;;;;;;3.93;3.73;;;;;;;;;;5034852;28;20784;-40
2023/08/29 10:01:53;;;;;;;4.40;4.20;;;;;;;;;;5033804;28;20440;-42
2023/08/29 10:04:21;;;;;;;3.60;3.30;;;;;;;;;;5034301;28;20891;-40
2023/08/29 10:06:53;;;;;;;6.63;6.00;;;;;;;;;;5034044;28;20447;-43
2023/08/29 10:09:22;;;;;;;35.93;18.57;;;;;;;;;;5042572;28;20538;-46
2023/08/29 10:11:50;;;;;;;7.20;6.53;;;;;;;;;;5044172;28;20467;-43
2023/08/29 10:14:22;;;;;;;5.23;4.67;;;;;;;;;;5039180;28;20463;-43
2023/08/29 10:16:50;;;;;;;3.83;3.50;;;;;;;;;;5041669;28;20467;-40
2023/08/29 10:19:18;;;;;;;3.33;3.13;;;;;;;;;;5040348;28;20493;-42
2023/08/29 10:21:47;;;;;;;3.10;2.90;;;;;;;;;;5035194;28;20526;-40
2023/08/29 10:24:14;;;;;;;2.90;2.80;;;;;;;;;;5033834;28;20878;-44
2023/08/29 10:26:44;;;;;;;2.83;2.70;;;;;;;;;;5034480;28;20527;-40
2023/08/29 10:29:11;;;;;;;2.53;2.43;;;;;;;;;;5045578;28;20435;-41
2023/08/29 10:31:39;;;;;;;3.60;2.70;;;;;;;;;;5036529;28;20468;-41
2023/08/29 10:34:06;;;;;;;3.13;2.90;;;;;;;;;;5042027;28;20506;-43
2023/08/29 10:36:37;;;;;;;8.37;5.73;;;;;;;;;;5033314;28;21027;-41
2023/08/29 10:39:07;;;;;;;8.13;6.47;;;;;;;;;;5026145;28;20494;-49
2023/08/29 10:41:45;;;;;;;3.10;2.90;;;;;;;;;;5033720;28;20443;-43
2023/08/29 10:44:36;;;;;;;3.10;2.90;;;;;;;;;;5033863;28;20911;-43
2023/08/29 10:47:26;;;;;;;3.27;2.93;;;;;;;;;;5021846;28;20456;-40
2023/08/29 10:49:57;;;;;;;5.03;4.63;;;;;;;;;;5025226;28;20444;-42
2023/08/29 10:52:34;;;;;;;11.27;8.00;;;;;;;;;;5025052;28;20932;-41
2023/08/29 10:55:08;;;;;;;10.97;7.57;;;;;;;;;;5024883;28;20464;-43
2023/08/29 10:57:36;;;;;;;12.20;9.20;;;;;;;;;;5024862;28;20550;-41
2023/08/29 11:00:15;;;;;;;3.83;3.53;;;;;;;;;;5033469;28;20440;-40
2023/08/29 11:02:43;;;;;;;4.40;4.10;;;;;;;;;;5016498;28;20898;-42
2023/08/29 11:05:15;;;;;;;3.27;3.07;;;;;;;;;;5032747;28;20583;-42
2023/08/29 11:07:42;;;;;;;2.90;2.80;;;;;;;;;;5041369;28;20566;-41
2023/08/29 11:10:17;;;;;;;3.20;3.00;;;;;;;;;;5041295;28;20957;-44
2023/08/29 11:13:06;;;;;;;2.50;2.40;;;;;;;;;;5032629;28;20893;-40
2023/08/29 11:15:52;;;;;;;2.93;2.83;;;;;;;;;;5042209;28;20469;-43
2023/08/29 11:18:20;;;;;;;2.77;2.67;;;;;;;;;;5047146;28;20910;-44
2023/08/29 11:20:47;;;;;;;3.10;2.90;;;;;;;;;;5052647;28;20443;-44
2023/08/29 11:23:15;;;;;;;3.30;3.10;;;;;;;;;;5052463;28;20487;-43
2023/08/29 11:25:43;;;;;;;5.87;2.73;;;;;;;;;;5041781;28;20554;-42
2023/08/29 11:28:11;;;;;;;2.60;2.50;;;;;;;;;;5041236;28;20467;-40
2023/08/29 11:30:39;;;;;;;2.97;2.53;;;;;;;;;;5041015;28;20915;-40
2023/08/29 11:33:11;;;;;;;2.53;2.40;;;;;;;;;;5032300;28;21002;-42
2023/08/29 11:35:38;;;;;;;2.83;2.73;;;;;;;;;;5040467;28;20465;-42
2023/08/29 11:38:06;;;;;;;3.00;2.80;;;;;;;;;;5032686;28;20475;-43
2023/08/29 11:40:35;;;;;;;3.50;3.30;;;;;;;;;;5032591;28;20435;-43
2023/08/29 11:43:24;;;;;;;2.57;2.47;;;;;;;;;;5038420;28;20450;-40
2023/08/29 11:46:12;;;;;;;2.73;2.57;;;;;;;;;;5020368;28;20479;-43
2023/08/29 11:48:41;;;;;;;3.63;2.30;;;;;;;;;;5021045;28;20502;-42
2023/08/29 11:51:09;;;;;;;2.80;2.70;;;;;;;;;;5032281;28;20493;-40
2023/08/29 11:53:37;;;;;;;2.67;2.57;;;;;;;;;;5032103;28;20459;-43
2023/08/29 11:56:05;;;;;;;2.80;2.70;;;;;;;;;;5028212;28;20457;-41
2023/08/29 11:58:34;;;;;;;2.57;2.47;;;;;;;;;;5028162;28;20553;-40
2023/08/29 12:01:02;;;;;;;2.57;2.47;;;;;;;;;;5031907;28;20436;-42
2023/08/29 12:03:29;;;;;;;3.10;2.83;;;;;;;;;;5031757;28;20459;-43
2023/08/29 12:05:58;;;;;;;2.60;2.50;;;;;;;;;;5025421;28;20461;-42
2023/08/29 12:08:36;;;;;;;2.30;2.20;;;;;;;;;;5033941;28;20428;-41
2023/08/29 12:11:06;;;;;;;15.07;4.43;;;;;;;;;;5026343;28;20470;-42
2023/08/29 12:13:35;;;;;;;8.50;4.43;;;;;;;;;;5033742;28;21048;-43
2023/08/29 12:16:02;;;;;;;2.57;2.47;;;;;;;;;;5047206;28;20463;-40
2023/08/29 12:18:32;;;;;;;2.93;2.83;;;;;;;;;;5054002;28;20553;-42
2023/08/29 12:21:12;;;;;;;2.87;2.67;;;;;;;;;;5064735;28;21272;-44
2023/08/29 12:23:41;;;;;;;2.50;2.40;;;;;;;;;;5056187;28;20537;-42
2023/08/29 12:26:09;;;;;;;6.77;3.17;;;;;;;;;;5053136;28;20461;-41
2023/08/29 12:28:38;;;;;;;2.63;2.30;;;;;;;;;;5053572;28;20489;-42
2023/08/29 12:31:07;;;;;;;2.53;2.40;;;;;;;;;;5061703;28;20435;-44
2023/08/29 12:33:35;;;;;;;2.20;2.10;;;;;;;;;;5061320;28;20553;-42
2023/08/29 12:36:02;;;;;;;2.20;2.10;;;;;;;;;;5047371;28;20448;-43
2023/08/29 12:38:31;;;;;;;2.20;2.10;;;;;;;;;;5033239;28;20503;-43
2023/08/29 12:40:59;;;;;;;2.97;2.10;;;;;;;;;;5022477;28;20506;-42
2023/08/29 12:43:26;;;;;;;2.47;2.37;;;;;;;;;;5021342;28;20960;-42
2023/08/29 12:45:55;;;;;;;2.40;2.20;;;;;;;;;;5032712;28;20469;-44
2023/08/29 12:48:26;;;;;;;2.37;2.27;;;;;;;;;;5053728;28;20453;-41
2023/08/29 12:50:54;;;;;;;2.60;2.50;;;;;;;;;;5053132;28;20844;-41
2023/08/29 12:53:21;;;;;;;2.60;2.40;;;;;;;;;;5052932;28;20451;-42
2023/08/29 12:55:50;;;;;;;2.47;2.27;;;;;;;;;;5051091;28;20996;-40
2023/08/29 12:58:17;;;;;;;2.80;2.60;;;;;;;;;;5046303;28;20466;-43
2023/08/29 13:00:45;;;;;;;2.17;2.07;;;;;;;;;;5052758;28;20435;-40
2023/08/29 13:03:14;;;;;;;2.30;2.10;;;;;;;;;;5052863;28;20858;-42
2023/08/29 13:05:42;;;;;;;2.33;2.23;;;;;;;;;;5052763;28;21023;-42